Bayamon, PR

5:25 PM AST on September 01, 2014 (GMT -0400)
Cayey | Change Station
CLOSE
Current Station
Personal Weather Station
Location: Cayey, PR
Elevation: 1299 ft
Nearby Weather Stations

Elev 1299 ft 18.12 °N, 66.16 °W | Updated 49 seconds ago

Scattered Clouds
Scattered Clouds
80.0 °F
Feels Like 83 °F
N
13.0
Wind Variable Wind from ENE
Gusts 13.0 mph

Today
High -- | Low -- °F
--% Chance of Precip.
Yesterday
High -- | Low -- °F
Precip. -- in
6:10 AM 6:38 PM
Waxing Crescent, 44% visible
Pressure 29.97 in
Visibility 10.0 miles
Clouds Few 3400 ft
Scattered Clouds 8500 ft
Scattered Clouds 12000 ft
Heat Index 83 °F
Dew Point 70 °F
Humidity 73%
Rainfall 0.01 in
Snow Depth Not available.
UV 2 out of 12
Pollen Not available.
Air Quality Not available.
Flu Activity Not available.
METAR TJSJ 012056Z 06012KT 10SM FEW034 SCT085 SCT120 30/23 A2997 RMK AO2 SLP147 VCSH S T03000233 56008

More Conditions Fewer Conditions

Pressure 29.97 in
Visibility 10.0 miles
Clouds Few 3400 ft
Scattered Clouds 8500 ft
Scattered Clouds 12000 ft
Heat Index 83 °F
Dew Point 70 °F
Humidity 73%
Rainfall 0.01 in
Snow Depth Not available.
UV 2 out of 12
Pollen Not available.
Air Quality Not available.
Flu Activity Not available.
METAR TJSJ 012056Z 06012KT 10SM FEW034 SCT085 SCT120 30/23 A2997 RMK AO2 SLP147 VCSH S T03000233 56008

More Conditions Fewer Conditions

10-Day Weather Forecast

Almanac

Astronomy

Sep. 01, 2014 Rise Set
Actual Time 6:10 AM AST 6:38 PM AST
Civil Twilight 5:47 AM AST 7:00 PM AST
Nautical Twilight 5:22 AM AST 7:26 PM AST
Astronomical Twilight 4:56 AM AST 7:52 PM AST
Moon 11:56 AM AST 11:33 PM AST
Length of Visible Light 13h 12m
Length of Day
12h 28m
Tomorrow will be 0m 59s shorter.
Waxing Crescent, 44% of the Moon is Illuminated
Today
Waxing Crescent
Sep 2
First Quarter
Sep 8
Full
Sep 15
Last Quarter
Sep 24
New

Community

WunderPhotos

Upload Photos

1,749,413 photos uploaded!

WunderBlogs® & News

Nearby

Snow Depth

Station Depth Elevation
No new snow has been reported.

Earthquake Activity

City Distance Mag. Time & Date
No recent earthquake activity has been reported nearby.
Minimum magnitude displayed is 2.5.

Coastal Water Temperatures

Place Temperature
Magueyes Islands, PR 84.9 °F
Yabucoa Harbor, PR 84.9 °F

Nearby Weather Stations